createdAt,value
2019-03-15T00:00:40.920Z,7.90
2019-03-15T00:03:12.118Z,7.90
2019-03-15T00:05:42.530Z,7.90
2019-03-15T00:08:10.984Z,7.90
2019-03-15T00:10:40.979Z,7.80
2019-03-15T00:13:09.568Z,7.80
2019-03-15T00:15:39.599Z,7.80
2019-03-15T00:18:10.027Z,7.80
2019-03-15T00:20:41.101Z,7.70
2019-03-15T00:23:10.567Z,7.70
2019-03-15T00:26:00.809Z,7.70
2019-03-15T00:28:30.798Z,7.70
2019-03-15T00:30:59.332Z,7.70
2019-03-15T00:33:27.817Z,7.70
2019-03-15T00:35:57.549Z,7.70
2019-03-15T00:38:28.624Z,7.70
2019-03-15T00:40:59.723Z,7.70
2019-03-15T00:43:29.063Z,7.70
2019-03-15T00:46:03.148Z,7.70
2019-03-15T00:48:31.640Z,7.70
2019-03-15T00:51:00.097Z,7.70
2019-03-15T00:53:28.646Z,7.70
2019-03-15T00:55:57.215Z,7.60
2019-03-15T00:58:25.744Z,7.60
2019-03-15T01:00:54.222Z,7.70
2019-03-15T01:03:22.761Z,7.60
2019-03-15T01:05:52.855Z,7.60
2019-03-15T01:08:21.378Z,7.70
2019-03-15T01:10:49.891Z,7.60
2019-03-15T01:13:18.420Z,7.60
2019-03-15T01:15:49.017Z,7.60
2019-03-15T01:18:20.721Z,7.60
2019-03-15T01:20:50.891Z,7.60
2019-03-15T01:23:23.698Z,7.50
2019-03-15T01:25:52.202Z,7.60
2019-03-15T01:28:20.678Z,7.50
2019-03-15T01:30:49.142Z,7.60
2019-03-15T01:33:17.611Z,7.60
2019-03-15T01:35:46.091Z,7.60
2019-03-15T01:38:14.622Z,7.60
2019-03-15T01:40:43.255Z,7.50
2019-03-15T01:43:11.759Z,7.60
2019-03-15T01:45:40.206Z,7.60
2019-03-15T01:48:08.687Z,7.60
2019-03-15T01:50:38.674Z,7.60
2019-03-15T01:53:07.141Z,7.60
2019-03-15T01:55:38.741Z,7.60
2019-03-15T01:58:07.191Z,7.60
2019-03-15T02:00:35.842Z,7.60
2019-03-15T02:03:06.111Z,7.60
2019-03-15T02:05:34.650Z,7.60
2019-03-15T02:08:05.908Z,7.60
2019-03-15T02:10:38.095Z,7.70
2019-03-15T02:13:06.535Z,7.70
2019-03-15T02:15:38.078Z,7.70
2019-03-15T02:18:08.317Z,7.70
2019-03-15T02:20:36.840Z,7.70
2019-03-15T02:23:05.335Z,7.70
2019-03-15T02:25:33.941Z,7.70
2019-03-15T02:28:02.438Z,7.70
2019-03-15T02:30:30.948Z,7.80
2019-03-15T02:32:59.451Z,7.70
2019-03-15T02:35:28.098Z,7.70
2019-03-15T02:37:58.339Z,7.70
2019-03-15T02:40:28.497Z,7.80
2019-03-15T02:43:20.933Z,7.80
2019-03-15T02:46:01.467Z,7.80
2019-03-15T02:48:32.912Z,7.80
2019-03-15T02:51:01.044Z,7.70
2019-03-15T02:53:32.224Z,7.80
2019-03-15T02:56:00.878Z,7.80
2019-03-15T02:58:29.396Z,7.80
2019-03-15T03:00:58.264Z,7.80
2019-03-15T03:03:28.300Z,7.80
2019-03-15T03:05:57.533Z,7.80
2019-03-15T03:08:28.344Z,7.80
2019-03-15T03:10:58.689Z,7.90
2019-03-15T03:13:29.443Z,7.90
2019-03-15T03:15:58.161Z,7.90
2019-03-15T03:18:30.917Z,7.80
2019-03-15T03:20:59.400Z,7.80
2019-03-15T03:23:30.785Z,7.80
2019-03-15T03:26:05.319Z,7.80
2019-03-15T03:28:35.352Z,7.70
2019-03-15T03:31:05.497Z,7.70
2019-03-15T03:33:34.020Z,7.70
2019-03-15T03:36:02.651Z,7.70
2019-03-15T03:38:31.136Z,7.70
2019-03-15T03:41:01.349Z,7.70
2019-03-15T03:43:29.959Z,7.70
2019-03-15T03:45:58.419Z,7.70
2019-03-15T03:48:26.894Z,7.80
2019-03-15T03:50:55.519Z,7.80
2019-03-15T03:53:24.255Z,7.80
2019-03-15T03:55:52.849Z,7.90
2019-03-15T03:58:21.420Z,7.80
2019-03-15T04:00:49.940Z,7.90
2019-03-15T04:03:18.726Z,7.90
2019-03-15T04:05:47.642Z,7.90
2019-03-15T04:08:16.162Z,7.90
2019-03-15T04:10:44.671Z,7.90
2019-03-15T04:13:13.172Z,7.90
2019-03-15T04:15:42.203Z,7.90
2019-03-15T04:18:10.663Z,7.90
2019-03-15T04:20:40.678Z,7.90
2019-03-15T04:23:11.426Z,7.90
2019-03-15T04:25:43.014Z,8.00
2019-03-15T04:28:11.457Z,7.90
2019-03-15T04:30:39.944Z,7.90
2019-03-15T04:33:08.398Z,7.90
2019-03-15T04:35:36.861Z,8.00
2019-03-15T04:38:05.432Z,8.00
2019-03-15T04:40:33.896Z,7.90
2019-03-15T04:43:02.423Z,8.00
2019-03-15T04:45:31.941Z,8.00
2019-03-15T04:48:03.217Z,8.00
2019-03-15T04:50:31.710Z,8.00
2019-03-15T04:53:00.201Z,8.00
2019-03-15T04:55:28.807Z,8.00
2019-03-15T04:57:57.332Z,8.00
2019-03-15T05:00:25.807Z,8.00
2019-03-15T05:02:54.265Z,8.00
2019-03-15T05:05:22.929Z,8.00
2019-03-15T05:07:54.907Z,8.00
2019-03-15T05:10:23.391Z,8.00
2019-03-15T05:12:56.056Z,8.10
2019-03-15T05:15:24.753Z,8.10
2019-03-15T05:17:53.275Z,8.20
2019-03-15T05:20:21.722Z,8.20
2019-03-15T05:22:50.256Z,8.30
2019-03-15T05:25:18.948Z,8.20
2019-03-15T05:27:47.521Z,8.20
2019-03-15T05:30:15.987Z,8.20
2019-03-15T05:32:44.456Z,8.20
2019-03-15T05:35:13.430Z,8.20
2019-03-15T05:37:46.164Z,8.10
2019-03-15T05:40:15.624Z,8.10
2019-03-15T05:42:44.736Z,8.00
2019-03-15T05:45:14.420Z,8.00
2019-03-15T05:47:46.040Z,8.00
2019-03-15T05:50:17.931Z,7.90
2019-03-15T05:52:46.728Z,8.00
2019-03-15T05:55:21.369Z,7.90
2019-03-15T05:57:49.952Z,7.90
2019-03-15T06:00:20.402Z,7.90
2019-03-15T06:02:49.472Z,7.90
2019-03-15T06:05:18.894Z,7.80
2019-03-15T06:07:50.445Z,7.80
2019-03-15T06:10:18.904Z,7.80
2019-03-15T06:12:48.045Z,7.70
2019-03-15T06:15:17.865Z,7.70
2019-03-15T06:17:47.402Z,7.70
2019-03-15T06:20:17.269Z,7.70
2019-03-15T06:22:46.949Z,7.70
2019-03-15T06:25:15.625Z,7.70
2019-03-15T06:27:45.681Z,7.70
2019-03-15T06:30:19.338Z,7.70
2019-03-15T06:32:49.033Z,7.70
2019-03-15T06:35:19.137Z,7.60
2019-03-15T06:37:49.687Z,7.70
2019-03-15T06:40:18.486Z,7.60
2019-03-15T06:42:47.095Z,7.70
2019-03-15T06:45:15.643Z,7.70
2019-03-15T06:47:48.135Z,7.70
2019-03-15T06:50:17.787Z,7.70
2019-03-15T06:52:46.321Z,7.60
2019-03-15T06:55:17.669Z,7.60
2019-03-15T06:57:46.227Z,7.60
2019-03-15T07:00:17.695Z,7.60
2019-03-15T07:02:46.389Z,7.60
2019-03-15T07:05:17.468Z,7.70
2019-03-15T07:07:49.892Z,7.80
2019-03-15T07:10:18.470Z,7.80
2019-03-15T07:12:47.032Z,7.70
2019-03-15T07:15:15.880Z,7.80
2019-03-15T07:17:47.795Z,7.80
2019-03-15T07:20:17.241Z,7.70
2019-03-15T07:22:45.903Z,7.70
2019-03-15T07:25:14.545Z,7.80
2019-03-15T07:27:46.543Z,7.80
2019-03-15T07:30:17.568Z,7.70
2019-03-15T07:32:47.405Z,7.70
2019-03-15T07:35:16.228Z,7.80
2019-03-15T07:37:45.737Z,7.80
2019-03-15T07:40:18.683Z,7.80
2019-03-15T07:42:48.751Z,7.90
2019-03-15T07:45:17.674Z,7.90
2019-03-15T07:47:55.573Z,7.90
2019-03-15T07:50:25.796Z,8.00
2019-03-15T07:52:54.932Z,8.10
2019-03-15T07:55:25.241Z,8.10
2019-03-15T07:57:55.818Z,8.20
2019-03-15T08:00:27.230Z,8.20
2019-03-15T08:03:00.043Z,8.20
2019-03-15T08:05:29.408Z,8.30
2019-03-15T08:07:58.028Z,8.40
2019-03-15T08:10:26.581Z,8.40
2019-03-15T08:12:55.112Z,8.50
2019-03-15T08:15:24.546Z,8.60
2019-03-15T08:17:54.596Z,8.70
2019-03-15T08:20:23.353Z,8.70
2019-03-15T08:22:51.881Z,8.80
2019-03-15T08:25:21.973Z,8.90
2019-03-15T08:27:50.453Z,9.00
2019-03-15T08:30:19.483Z,9.00
2019-03-15T08:32:48.184Z,9.10
2019-03-15T08:35:16.936Z,9.10
2019-03-15T08:37:45.531Z,9.20
2019-03-15T08:40:14.764Z,9.30
2019-03-15T08:42:43.567Z,9.40
2019-03-15T08:45:13.999Z,9.40
2019-03-15T08:47:42.753Z,9.50
2019-03-15T08:50:15.289Z,9.70
2019-03-15T08:52:44.016Z,9.90
2019-03-15T08:55:15.792Z,10.10
2019-03-15T08:57:44.231Z,10.20
2019-03-15T09:00:18.459Z,10.40
2019-03-15T09:02:46.943Z,10.70
2019-03-15T09:05:17.386Z,10.90
2019-03-15T09:07:46.998Z,11.10
2019-03-15T09:10:24.127Z,11.20
2019-03-15T09:12:52.880Z,11.40
2019-03-15T09:15:21.493Z,11.40
2019-03-15T09:17:49.979Z,11.50
2019-03-15T09:20:19.684Z,11.60
2019-03-15T09:22:48.156Z,11.70
2019-03-15T09:25:20.228Z,11.70
2019-03-15T09:27:50.167Z,11.70
2019-03-15T09:30:23.657Z,11.70
2019-03-15T09:32:49.198Z,11.70
2019-03-15T09:35:17.744Z,11.70
2019-03-15T09:37:47.657Z,11.80
2019-03-15T09:40:16.633Z,11.90
2019-03-15T09:42:47.646Z,11.90
2019-03-15T09:45:21.207Z,12.00
2019-03-15T09:47:51.328Z,12.10
2019-03-15T09:50:33.290Z,12.30
2019-03-15T09:52:56.253Z,12.20
2019-03-15T09:55:33.096Z,12.40
2019-03-15T09:57:59.918Z,12.40
2019-03-15T10:00:31.828Z,12.50
2019-03-15T10:03:01.443Z,12.60
2019-03-15T10:05:31.358Z,12.60
2019-03-15T10:07:59.846Z,12.60
2019-03-15T10:10:29.866Z,12.70
2019-03-15T10:13:05.840Z,12.70
2019-03-15T10:15:34.755Z,12.70
2019-03-15T10:18:03.343Z,12.80
2019-03-15T10:20:33.441Z,12.80
2019-03-15T10:23:06.585Z,12.90
2019-03-15T10:25:46.149Z,12.90
2019-03-15T10:28:08.367Z,13.00
2019-03-15T10:30:37.906Z,13.10
2019-03-15T10:33:06.593Z,13.10
2019-03-15T10:35:35.793Z,13.10
2019-03-15T10:38:05.309Z,13.10
2019-03-15T10:40:33.971Z,13.10
2019-03-15T10:43:02.496Z,12.90
2019-03-15T10:45:31.158Z,12.60
2019-03-15T10:48:00.634Z,12.40
2019-03-15T10:50:30.693Z,12.20
2019-03-15T10:53:00.696Z,12.10
2019-03-15T10:55:37.753Z,12.10
2019-03-15T10:58:06.377Z,12.20
2019-03-15T11:00:37.909Z,12.20
2019-03-15T11:03:06.384Z,12.30
2019-03-15T11:05:34.872Z,12.40
2019-03-15T11:08:03.459Z,12.50
2019-03-15T11:10:32.142Z,12.60
2019-03-15T11:13:00.660Z,12.70
2019-03-15T11:15:32.120Z,12.80
2019-03-15T11:18:00.590Z,12.80
2019-03-15T11:20:29.051Z,12.90
2019-03-15T11:23:01.081Z,12.80
2019-03-15T11:25:31.695Z,12.80
2019-03-15T11:28:00.318Z,12.70
2019-03-15T11:30:30.117Z,12.60
2019-03-15T11:33:00.186Z,12.50
2019-03-15T11:35:28.674Z,12.50
2019-03-15T11:37:57.153Z,12.60
2019-03-15T11:40:25.620Z,12.60
2019-03-15T11:42:54.397Z,12.70
2019-03-15T11:45:22.912Z,12.80
2019-03-15T11:48:03.470Z,12.90
2019-03-15T11:50:23.117Z,13.10
2019-03-15T11:52:51.620Z,13.20
2019-03-15T11:55:39.432Z,13.40
2019-03-15T11:58:07.919Z,13.60
2019-03-15T12:00:37.041Z,13.70
2019-03-15T12:03:06.802Z,13.70
2019-03-15T12:05:36.184Z,13.80
2019-03-15T12:08:04.985Z,13.80
2019-03-15T12:10:33.567Z,13.90
2019-03-15T12:13:03.605Z,14.00
2019-03-15T12:15:32.193Z,14.00
2019-03-15T12:18:00.736Z,14.10
2019-03-15T12:20:29.257Z,14.10
2019-03-15T12:22:57.898Z,14.10
2019-03-15T12:25:31.630Z,14.00
2019-03-15T12:28:00.260Z,14.00
2019-03-15T12:30:30.307Z,14.00
2019-03-15T12:32:58.768Z,14.00
2019-03-15T12:35:27.225Z,14.00
2019-03-15T12:37:55.711Z,13.80
2019-03-15T12:40:25.284Z,13.70
2019-03-15T12:42:53.723Z,13.50
2019-03-15T12:45:22.201Z,13.40
2019-03-15T12:47:50.670Z,13.40
2019-03-15T12:50:19.374Z,13.30
2019-03-15T12:52:48.712Z,13.10
2019-03-15T12:55:18.008Z,13.00
2019-03-15T12:57:49.304Z,12.90
2019-03-15T13:00:20.582Z,12.80
2019-03-15T13:02:49.206Z,12.60
2019-03-15T13:05:17.737Z,12.40
2019-03-15T13:07:46.328Z,12.20
2019-03-15T13:10:19.568Z,12.10
2019-03-15T13:12:48.027Z,12.00
2019-03-15T13:15:17.148Z,11.90
2019-03-15T13:17:46.264Z,12.00
2019-03-15T13:20:16.806Z,12.00
2019-03-15T13:22:45.437Z,12.00
2019-03-15T13:25:14.214Z,12.10
2019-03-15T13:27:43.238Z,12.10
2019-03-15T13:30:16.899Z,12.20
2019-03-15T13:32:45.421Z,12.20
2019-03-15T13:35:14.148Z,12.30
2019-03-15T13:37:43.366Z,12.20
2019-03-15T13:40:19.878Z,12.20
2019-03-15T13:42:49.886Z,12.10
2019-03-15T13:45:18.402Z,12.10
2019-03-15T13:47:46.932Z,11.90
2019-03-15T13:50:20.938Z,11.90
2019-03-15T13:52:49.510Z,12.00
2019-03-15T13:55:18.035Z,12.10
2019-03-15T13:57:46.715Z,12.20
2019-03-15T14:00:16.718Z,12.30
2019-03-15T14:02:45.261Z,12.30
2019-03-15T14:05:16.057Z,12.40
2019-03-15T14:07:44.621Z,12.40
2019-03-15T14:10:20.329Z,12.40
2019-03-15T14:12:48.892Z,12.40
2019-03-15T14:15:22.013Z,12.40
2019-03-15T14:17:50.471Z,12.40
2019-03-15T14:20:21.785Z,12.40
2019-03-15T14:22:59.758Z,12.40
2019-03-15T14:25:34.015Z,12.30
2019-03-15T14:28:05.568Z,12.30
2019-03-15T14:30:35.066Z,12.20
2019-03-15T14:33:05.098Z,12.30
2019-03-15T14:35:36.708Z,12.30
2019-03-15T14:38:09.292Z,12.30
2019-03-15T14:40:40.795Z,12.40
2019-03-15T14:43:09.788Z,12.30
2019-03-15T14:45:43.096Z,12.30
2019-03-15T14:48:15.443Z,12.30
2019-03-15T14:50:44.519Z,12.30
2019-03-15T14:53:14.121Z,12.30
2019-03-15T14:55:44.216Z,12.30
2019-03-15T14:58:12.935Z,12.30
2019-03-15T15:00:45.677Z,12.30
2019-03-15T15:03:16.179Z,12.40
2019-03-15T15:05:47.454Z,12.40
2019-03-15T15:08:16.679Z,12.40
2019-03-15T15:10:45.146Z,12.60
2019-03-15T15:13:13.696Z,12.90
2019-03-15T15:15:42.327Z,13.00
2019-03-15T15:18:11.168Z,12.90
2019-03-15T15:20:41.321Z,12.80
2019-03-15T15:23:11.271Z,12.70
2019-03-15T15:25:42.533Z,12.60
2019-03-15T15:28:11.048Z,12.50
2019-03-15T15:30:40.095Z,12.50
2019-03-15T15:33:10.678Z,12.40
2019-03-15T15:35:41.564Z,12.30
2019-03-15T15:38:09.431Z,12.20
2019-03-15T15:40:40.766Z,12.20
2019-03-15T15:43:11.124Z,12.10
2019-03-15T15:45:39.762Z,12.10
2019-03-15T15:48:08.231Z,12.00
2019-03-15T15:50:36.696Z,11.90
2019-03-15T15:53:05.308Z,11.90
2019-03-15T15:55:33.906Z,11.90
2019-03-15T15:58:02.373Z,11.80
2019-03-15T16:00:32.232Z,11.80
2019-03-15T16:03:00.760Z,11.80
2019-03-15T16:05:29.353Z,11.80
2019-03-15T16:07:57.836Z,11.80
2019-03-15T16:10:27.877Z,11.80
2019-03-15T16:12:58.775Z,11.80
2019-03-15T16:15:27.104Z,11.80
2019-03-15T16:17:55.602Z,11.80
2019-03-15T16:20:24.123Z,11.80
2019-03-15T16:22:54.976Z,11.80
2019-03-15T16:25:28.876Z,11.80
2019-03-15T16:27:57.405Z,11.70
2019-03-15T16:30:25.958Z,11.70
2019-03-15T16:32:56.450Z,11.60
2019-03-15T16:35:25.140Z,11.60
2019-03-15T16:37:53.624Z,11.60
2019-03-15T16:40:23.629Z,11.50
2019-03-15T16:42:56.725Z,11.50
2019-03-15T16:45:28.540Z,11.40
2019-03-15T16:48:03.056Z,11.40
2019-03-15T16:50:38.729Z,11.30
2019-03-15T16:53:08.381Z,11.30
2019-03-15T16:55:46.075Z,11.30
2019-03-15T16:58:17.550Z,11.30
2019-03-15T17:00:46.156Z,11.30
2019-03-15T17:03:14.674Z,11.30
2019-03-15T17:05:43.317Z,11.20
2019-03-15T17:08:11.801Z,11.10
2019-03-15T17:10:40.262Z,11.10
2019-03-15T17:13:10.415Z,11.10
2019-03-15T17:15:39.124Z,11.00
2019-03-15T17:18:10.801Z,11.00
2019-03-15T17:20:42.240Z,10.90
2019-03-15T17:23:14.987Z,10.80
2019-03-15T17:25:46.609Z,10.80
2019-03-15T17:28:16.728Z,10.70
2019-03-15T17:30:45.212Z,10.70
2019-03-15T17:33:14.085Z,10.60
2019-03-15T17:35:42.603Z,10.60
2019-03-15T17:38:11.077Z,10.60
2019-03-15T17:40:42.541Z,10.50
2019-03-15T17:43:11.131Z,10.50
2019-03-15T17:45:41.123Z,10.50
2019-03-15T17:48:11.365Z,10.50
2019-03-15T17:50:41.000Z,10.50
2019-03-15T17:53:09.532Z,10.40
2019-03-15T17:55:38.166Z,10.40
2019-03-15T17:58:06.743Z,10.40
2019-03-15T18:00:49.101Z,10.40
2019-03-15T18:03:21.373Z,10.40
2019-03-15T18:05:48.822Z,10.30
2019-03-15T18:08:17.402Z,10.20
2019-03-15T18:10:46.785Z,10.20
2019-03-15T18:13:15.309Z,10.10
2019-03-15T18:15:45.506Z,10.10
2019-03-15T18:18:13.987Z,10.00
2019-03-15T18:20:42.607Z,10.00
2019-03-15T18:23:11.067Z,9.90
2019-03-15T18:25:41.317Z,9.90
2019-03-15T18:28:11.167Z,9.90
2019-03-15T18:30:40.047Z,9.80
2019-03-15T18:33:10.150Z,9.80
2019-03-15T18:35:44.398Z,9.70
2019-03-15T18:38:17.898Z,9.70
2019-03-15T18:40:49.040Z,9.70
2019-03-15T18:43:17.524Z,9.60
2019-03-15T18:45:51.087Z,9.60
2019-03-15T18:48:19.548Z,9.60
2019-03-15T18:50:48.038Z,9.50
2019-03-15T18:53:17.631Z,9.40
2019-03-15T18:55:46.527Z,9.40
2019-03-15T18:58:15.011Z,9.40
2019-03-15T19:00:43.568Z,9.30
2019-03-15T19:03:13.395Z,9.30
2019-03-15T19:05:46.858Z,9.20
2019-03-15T19:08:14.849Z,9.20
2019-03-15T19:10:44.935Z,9.20
2019-03-15T19:13:13.451Z,9.10
2019-03-15T19:15:43.863Z,9.10
2019-03-15T19:18:16.812Z,9.10
2019-03-15T19:20:45.528Z,9.00
2019-03-15T19:23:15.884Z,9.00
2019-03-15T19:25:44.540Z,9.00
2019-03-15T19:28:13.208Z,8.90
2019-03-15T19:30:41.685Z,8.90
2019-03-15T19:33:10.209Z,8.90
2019-03-15T19:35:43.212Z,8.90
2019-03-15T19:38:09.074Z,8.90
2019-03-15T19:40:41.949Z,8.90
2019-03-15T19:43:11.285Z,8.90
2019-03-15T19:45:39.753Z,8.90
2019-03-15T19:48:12.963Z,8.90
2019-03-15T19:50:41.650Z,8.90
2019-03-15T19:53:10.325Z,8.90
2019-03-15T19:55:38.881Z,8.90
2019-03-15T19:58:07.402Z,8.90
2019-03-15T20:00:35.942Z,8.80
2019-03-15T20:03:06.083Z,8.80
2019-03-15T20:05:34.619Z,8.70
2019-03-15T20:08:06.133Z,8.70
2019-03-15T20:10:34.751Z,8.70
2019-03-15T20:13:03.312Z,8.60
2019-03-15T20:15:31.852Z,8.60
2019-03-15T20:18:00.532Z,8.60
2019-03-15T20:20:30.526Z,8.50
2019-03-15T20:23:02.467Z,8.50
2019-03-15T20:25:32.952Z,8.50
2019-03-15T20:28:04.084Z,8.50
2019-03-15T20:30:33.022Z,8.40
2019-03-15T20:33:02.972Z,8.40
2019-03-15T20:35:31.750Z,8.40
2019-03-15T20:38:00.287Z,8.40
2019-03-15T20:40:29.967Z,8.30
2019-03-15T20:43:00.253Z,8.30
2019-03-15T20:45:30.176Z,8.20
2019-03-15T20:47:58.718Z,8.20
2019-03-15T20:50:27.215Z,8.20
2019-03-15T20:53:07.585Z,8.20
2019-03-15T20:55:31.088Z,8.10
2019-03-15T20:58:02.061Z,8.10
2019-03-15T21:00:38.619Z,8.10
2019-03-15T21:03:08.090Z,8.10
2019-03-15T21:05:36.719Z,8.10
2019-03-15T21:08:07.265Z,8.20
2019-03-15T21:10:35.784Z,8.20
2019-03-15T21:13:05.788Z,8.20
2019-03-15T21:15:38.171Z,8.20
2019-03-15T21:18:06.731Z,8.20
2019-03-15T21:20:38.782Z,8.20
2019-03-15T21:23:07.303Z,8.30
2019-03-15T21:25:38.567Z,8.30
2019-03-15T21:28:07.696Z,8.30
2019-03-15T21:30:47.947Z,8.30
2019-03-15T21:33:09.867Z,8.30
2019-03-15T21:35:40.300Z,8.20
2019-03-15T21:38:08.834Z,8.20
2019-03-15T21:40:37.431Z,8.20
2019-03-15T21:43:05.947Z,8.30
2019-03-15T21:45:34.474Z,8.30
2019-03-15T21:48:03.058Z,8.30
2019-03-15T21:50:31.601Z,8.30
2019-03-15T21:53:00.043Z,8.30
2019-03-15T21:55:28.624Z,8.30
2019-03-15T21:57:58.381Z,8.30
2019-03-15T22:00:27.101Z,8.30
2019-03-15T22:02:56.819Z,8.30
2019-03-15T22:05:25.591Z,8.20
2019-03-15T22:07:57.190Z,8.20
2019-03-15T22:10:25.667Z,8.30
2019-03-15T22:12:54.143Z,8.30
2019-03-15T22:15:27.694Z,8.30
2019-03-15T22:17:55.397Z,8.30
2019-03-15T22:20:25.622Z,8.30
2019-03-15T22:22:57.457Z,8.40
2019-03-15T22:25:25.972Z,8.40
2019-03-15T22:27:54.423Z,8.50
2019-03-15T22:30:23.238Z,8.50
2019-03-15T22:32:53.269Z,8.50
2019-03-15T22:35:21.736Z,8.60
2019-03-15T22:37:50.242Z,8.60
2019-03-15T22:40:18.779Z,8.60
2019-03-15T22:42:48.203Z,8.60
2019-03-15T22:45:19.724Z,8.60
2019-03-15T22:47:51.736Z,8.60
2019-03-15T22:50:20.371Z,8.60
2019-03-15T22:52:52.083Z,8.60
2019-03-15T22:55:24.047Z,8.70
2019-03-15T22:57:59.881Z,8.70
2019-03-15T23:00:27.368Z,8.80
2019-03-15T23:02:58.619Z,8.80
2019-03-15T23:05:28.410Z,8.80
2019-03-15T23:07:56.861Z,8.80
2019-03-15T23:10:25.390Z,8.80
2019-03-15T23:12:54.880Z,8.90
2019-03-15T23:15:23.462Z,8.90
2019-03-15T23:17:52.091Z,8.90
2019-03-15T23:20:20.543Z,8.90
2019-03-15T23:22:48.991Z,9.00
2019-03-15T23:25:17.562Z,9.00
2019-03-15T23:27:46.013Z,9.00
2019-03-15T23:30:16.205Z,9.00
2019-03-15T23:32:44.743Z,9.00
2019-03-15T23:35:13.343Z,9.00
2019-03-15T23:37:42.832Z,9.00
2019-03-15T23:40:12.849Z,9.00
2019-03-15T23:42:41.302Z,9.00
2019-03-15T23:45:10.942Z,9.00
2019-03-15T23:47:39.499Z,9.10
2019-03-15T23:50:12.766Z,9.10
2019-03-15T23:52:41.309Z,9.10
2019-03-15T23:55:10.125Z,9.10
2019-03-15T23:57:38.659Z,9.10
